Andrew K — WDF8044 — position and weather

sailwx.info

Track history (hours):
 
Tides and Currents Weather Stations Pressure Air Temp Water Temp Dewpoint Dewpoint Depression Visibility Wind Speed Wind Dir Waves Ship Positions

Andrew K

Owner: G & H Towing Company, Galveston, TX. More information available from US FCC via Universal Licensing System and Coast Guard Vessel Documentation Center.

Last reported at 2017-Sep-19 17:00 UTC. Time now 2017-Sep-19 17:18 UTC.
Position N 29°44' W 095°17'.

Length 27 m; draft 4.6 m.

Type: Tug. MMSI: 367490790.

Date/timePositionNaut miles runAvg speedWind from/ knotsBaromVisibWave heightAir tempDewpointWater temp
2017-Sep-19 17:00N 29°44' W 095°17'6 0.4
2017-Sep-19 03:51N 29°45' W 095°10'1 2.5
2017-Sep-19 03:21N 29°44' W 095°09'3 2.2
2017-Sep-19 02:09N 29°45' W 095°06'1 3.5
2017-Sep-19 01:56N 29°45' W 095°06'1 1.8
2017-Sep-19 01:13N 29°45' W 095°07'1 0.2
2017-Sep-18 21:16N 29°44' W 095°07'2 1.0
2017-Sep-18 18:56N 29°46' W 095°05'3 1.3
2017-Sep-18 16:20N 29°44' W 095°09'4 6.2
2017-Sep-18 15:40N 29°44' W 095°14'0 0.0
2017-Sep-18 14:46N 29°43' W 095°14'0 0.0
2017-Sep-18 14:28N 29°43' W 095°14'1 1.3
2017-Sep-18 13:55N 29°43' W 095°14'7 1.1
2017-Sep-18 07:13N 29°45' W 095°06'1 0.4
2017-Sep-18 05:43N 29°44' W 095°07'2 7.2
2017-Sep-18 05:23N 29°44' W 095°09'0 0.4
2017-Sep-18 04:21N 29°45' W 095°10'0 0.0
2017-Sep-17 19:25N 29°45' W 095°10'1 0.8
2017-Sep-17 18:45N 29°45' W 095°10'1 0.4
2017-Sep-17 15:12N 29°44' W 095°09'0 0.1
2017-Sep-17 11:07N 29°44' W 095°09'2 0.2
2017-Sep-16 23:53N 29°45' W 095°07'3 1.3
2017-Sep-16 21:35N 29°44' W 095°03'0 0.5
2017-Sep-16 21:22N 29°44' W 095°03'2 3.8
2017-Sep-16 20:49N 29°43' W 095°01'1 3.6
2017-Sep-16 20:30N 29°42' W 095°00'1 2.7
2017-Sep-16 20:00N 29°41' W 094°59'0 0.8
2017-Sep-16 19:29N 29°41' W 094°60'0 0.0
2017-Sep-16 18:59N 29°41' W 094°60'0 0.0
2017-Sep-16 18:29N 29°41' W 094°60'0 0.0
2017-Sep-16 17:59N 29°41' W 094°60'4 6.3
2017-Sep-16 17:17N 29°37' W 094°57'2 9.3
2017-Sep-16 17:00N 29°37' W 095°00'1 1.5
2017-Sep-16 16:30N 29°37' W 095°01'0 0.0
2017-Sep-16 16:00N 29°37' W 095°01'2 3.7
2017-Sep-16 15:30N 29°37' W 094°59'5 9.4
2017-Sep-16 15:00N 29°34' W 094°55'2 3.8
2017-Sep-16 14:30N 29°35' W 094°56'4 8.5
2017-Sep-16 14:00N 29°39' W 094°58'4 7.8
2017-Sep-16 13:30N 29°42' W 095°01'2 3.2
2017-Sep-16 13:00N 29°44' W 095°02'4 5.8
2017-Sep-16 12:18N 29°45' W 095°06'0 0.9
2017-Sep-16 12:00N 29°45' W 095°06'2 0.1
2017-Sep-15 20:29N 29°44' W 095°08'2 0.6
2017-Sep-15 17:26N 29°45' W 095°10'0 0.4
2017-Sep-15 16:55N 29°45' W 095°10'1 0.1
2017-Sep-15 10:10N 29°44' W 095°09'3 0.5
2017-Sep-15 03:47N 29°44' W 095°13'0 0.0
2017-Sep-15 03:29N 29°44' W 095°13'5 1.6
2017-Sep-15 00:01N 29°44' W 095°07'0 4.8
2017-Sep-15 00:00N 29°44' W 095°07'1 0.2
2017-Sep-14 21:57N 29°44' W 095°07'0 0.0
2017-Sep-14 07:03N 29°44' W 095°08'0 0.4
2017-Sep-14 06:59N 29°44' W 095°08'1 0.5
2017-Sep-14 04:58N 29°44' W 095°07'1 0.8
2017-Sep-14 04:05N 29°44' W 095°07'0 0.8
2017-Sep-14 03:59N 29°44' W 095°07'1 2.3
2017-Sep-14 03:30N 29°45' W 095°06'0 0.1
2017-Sep-13 23:31N 29°45' W 095°06'0 1.6
2017-Sep-13 23:30N 29°45' W 095°06'2 0.2
2017-Sep-13 12:46N 29°44' W 095°08'1 0.1
2017-Sep-12 17:38N 29°44' W 095°07'3 3.7
2017-Sep-12 16:54N 29°45' W 095°10'1 0.1
2017-Sep-11 16:14N 29°45' W 095°11'1 4.8
2017-Sep-11 16:00N 29°45' W 095°10'3 0.1
2017-Sep-10 12:24N 29°44' W 095°07'0 0.0
2017-Sep-10 11:06N 29°44' W 095°07'0 0.0
2017-Sep-10 10:42N 29°44' W 095°07'0 0.0
2017-Sep-10 09:48N 29°44' W 095°07'0 0.0
2017-Sep-10 09:30N 29°44' W 095°07'0 0.0
2017-Sep-10 08:27N 29°44' W 095°07'0 0.0
2017-Sep-10 04:42N 29°44' W 095°07'0 0.0
2017-Sep-10 04:30N 29°44' W 095°07'0 0.0
2017-Sep-10 04:00N 29°44' W 095°07'0 0.2
2017-Sep-10 03:10N 29°44' W 095°07'0 0.0
2017-Sep-10 03:00N 29°44' W 095°07'0 0.2
2017-Sep-10 01:46N 29°45' W 095°07'0 1.6
2017-Sep-10 01:27N 29°45' W 095°06'0 0.3
2017-Sep-10 00:49N 29°45' W 095°06'1 0.2
2017-Sep-09 22:26N 29°44' W 095°07'0 0.0
2017-Sep-09 18:46N 29°44' W 095°07'2 7.7
2017-Sep-09 18:30N 29°44' W 095°09'  
Track history (hours):
 
Tides and Currents Weather Stations Pressure Air Temp Water Temp Dewpoint Dewpoint Depression Visibility Wind Speed Wind Dir Waves Ship Positions

Andrew K

Owner: G & H Towing Company, Galveston, TX. More information available from US FCC via Universal Licensing System and Coast Guard Vessel Documentation Center.

Last reported at 2017-Sep-19 17:00 UTC. Time now 2017-Sep-19 17:18 UTC.
Position N 29°44' W 095°17'.

Length 27 m; draft 4.6 m.

Type: Tug. MMSI: 367490790.

Date/timePositionNaut miles runAvg speedWind from/ knotsBaromVisibWave heightAir tempDewpointWater temp
2017-Sep-19 17:00N 29°44' W 095°17'6 0.4
2017-Sep-19 03:51N 29°45' W 095°10'1 2.5
2017-Sep-19 03:21N 29°44' W 095°09'3 2.2
2017-Sep-19 02:09N 29°45' W 095°06'1 3.5
2017-Sep-19 01:56N 29°45' W 095°06'1 1.8
2017-Sep-19 01:13N 29°45' W 095°07'1 0.2
2017-Sep-18 21:16N 29°44' W 095°07'2 1.0
2017-Sep-18 18:56N 29°46' W 095°05'3 1.3
2017-Sep-18 16:20N 29°44' W 095°09'4 6.2
2017-Sep-18 15:40N 29°44' W 095°14'0 0.0
2017-Sep-18 14:46N 29°43' W 095°14'0 0.0
2017-Sep-18 14:28N 29°43' W 095°14'1 1.3
2017-Sep-18 13:55N 29°43' W 095°14'7 1.1
2017-Sep-18 07:13N 29°45' W 095°06'1 0.4
2017-Sep-18 05:43N 29°44' W 095°07'2 7.2
2017-Sep-18 05:23N 29°44' W 095°09'0 0.4
2017-Sep-18 04:21N 29°45' W 095°10'0 0.0
2017-Sep-17 19:25N 29°45' W 095°10'1 0.8
2017-Sep-17 18:45N 29°45' W 095°10'1 0.4
2017-Sep-17 15:12N 29°44' W 095°09'0 0.1
2017-Sep-17 11:07N 29°44' W 095°09'2 0.2
2017-Sep-16 23:53N 29°45' W 095°07'3 1.3
2017-Sep-16 21:35N 29°44' W 095°03'0 0.5
2017-Sep-16 21:22N 29°44' W 095°03'2 3.8
2017-Sep-16 20:49N 29°43' W 095°01'1 3.6
2017-Sep-16 20:30N 29°42' W 095°00'1 2.7
2017-Sep-16 20:00N 29°41' W 094°59'0 0.8
2017-Sep-16 19:29N 29°41' W 094°60'0 0.0
2017-Sep-16 18:59N 29°41' W 094°60'0 0.0
2017-Sep-16 18:29N 29°41' W 094°60'0 0.0
2017-Sep-16 17:59N 29°41' W 094°60'4 6.3
2017-Sep-16 17:17N 29°37' W 094°57'2 9.3
2017-Sep-16 17:00N 29°37' W 095°00'1 1.5
2017-Sep-16 16:30N 29°37' W 095°01'0 0.0
2017-Sep-16 16:00N 29°37' W 095°01'2 3.7
2017-Sep-16 15:30N 29°37' W 094°59'5 9.4
2017-Sep-16 15:00N 29°34' W 094°55'2 3.8
2017-Sep-16 14:30N 29°35' W 094°56'4 8.5
2017-Sep-16 14:00N 29°39' W 094°58'4 7.8
2017-Sep-16 13:30N 29°42' W 095°01'2 3.2
2017-Sep-16 13:00N 29°44' W 095°02'4 5.8
2017-Sep-16 12:18N 29°45' W 095°06'0 0.9
2017-Sep-16 12:00N 29°45' W 095°06'2 0.1
2017-Sep-15 20:29N 29°44' W 095°08'2 0.6
2017-Sep-15 17:26N 29°45' W 095°10'0 0.4
2017-Sep-15 16:55N 29°45' W 095°10'1 0.1
2017-Sep-15 10:10N 29°44' W 095°09'3 0.5
2017-Sep-15 03:47N 29°44' W 095°13'0 0.0
2017-Sep-15 03:29N 29°44' W 095°13'5 1.6
2017-Sep-15 00:01N 29°44' W 095°07'0 4.8
2017-Sep-15 00:00N 29°44' W 095°07'1 0.2
2017-Sep-14 21:57N 29°44' W 095°07'0 0.0
2017-Sep-14 07:03N 29°44' W 095°08'0 0.4
2017-Sep-14 06:59N 29°44' W 095°08'1 0.5
2017-Sep-14 04:58N 29°44' W 095°07'1 0.8
2017-Sep-14 04:05N 29°44' W 095°07'0 0.8
2017-Sep-14 03:59N 29°44' W 095°07'1 2.3
2017-Sep-14 03:30N 29°45' W 095°06'0 0.1
2017-Sep-13 23:31N 29°45' W 095°06'0 1.6
2017-Sep-13 23:30N 29°45' W 095°06'2 0.2
2017-Sep-13 12:46N 29°44' W 095°08'1 0.1
2017-Sep-12 17:38N 29°44' W 095°07'3 3.7
2017-Sep-12 16:54N 29°45' W 095°10'1 0.1
2017-Sep-11 16:14N 29°45' W 095°11'1 4.8
2017-Sep-11 16:00N 29°45' W 095°10'3 0.1
2017-Sep-10 12:24N 29°44' W 095°07'0 0.0
2017-Sep-10 11:06N 29°44' W 095°07'0 0.0
2017-Sep-10 10:42N 29°44' W 095°07'0 0.0
2017-Sep-10 09:48N 29°44' W 095°07'0 0.0
2017-Sep-10 09:30N 29°44' W 095°07'0 0.0
2017-Sep-10 08:27N 29°44' W 095°07'0 0.0
2017-Sep-10 04:42N 29°44' W 095°07'0 0.0
2017-Sep-10 04:30N 29°44' W 095°07'0 0.0
2017-Sep-10 04:00N 29°44' W 095°07'0 0.2
2017-Sep-10 03:10N 29°44' W 095°07'0 0.0
2017-Sep-10 03:00N 29°44' W 095°07'0 0.2
2017-Sep-10 01:46N 29°45' W 095°07'0 1.6
2017-Sep-10 01:27N 29°45' W 095°06'0 0.3
2017-Sep-10 00:49N 29°45' W 095°06'1 0.2
2017-Sep-09 22:26N 29°44' W 095°07'0 0.0
2017-Sep-09 18:46N 29°44' W 095°07'2 7.7
2017-Sep-09 18:30N 29°44' W 095°09'  

Dump ship's entire track history